createdAt,value
2022-09-01T00:00:30.143Z,98593.63
2022-09-01T00:03:04.972Z,98589.56
2022-09-01T00:05:34.336Z,98579.13
2022-09-01T00:08:02.498Z,98588.44
2022-09-01T00:10:32.459Z,98580.94
2022-09-01T00:13:00.698Z,98576.66
2022-09-01T00:15:28.979Z,98580.38
2022-09-01T00:17:57.415Z,98575.97
2022-09-01T00:20:25.734Z,98576.59
2022-09-01T00:22:53.876Z,98578.75
2022-09-01T00:25:23.468Z,98577.25
2022-09-01T00:27:53.266Z,98582.69
2022-09-01T00:30:22.019Z,98579.03
2022-09-01T00:32:50.100Z,98580.38
2022-09-01T00:35:20.190Z,98589.06
2022-09-01T00:37:48.785Z,98586.69
2022-09-01T00:40:18.461Z,98579.78
2022-09-01T00:42:49.087Z,98575.94
2022-09-01T00:45:19.415Z,98582.91
2022-09-01T00:47:50.192Z,98580.28
2022-09-01T00:50:19.645Z,98573.00
2022-09-01T00:52:50.948Z,98575.59
2022-09-01T00:55:20.396Z,98570.59
2022-09-01T00:57:49.178Z,98564.06
2022-09-01T01:00:21.506Z,98564.28
2022-09-01T01:02:56.377Z,98572.69
2022-09-01T01:05:28.091Z,98563.63
2022-09-01T01:07:57.551Z,98570.66
2022-09-01T01:10:26.798Z,98573.28
2022-09-01T01:12:55.004Z,98570.19
2022-09-01T01:15:24.829Z,98566.88
2022-09-01T01:17:53.092Z,98562.75
2022-09-01T01:20:40.899Z,98568.78
2022-09-01T01:23:16.682Z,98573.75
2022-09-01T01:25:49.998Z,98572.00
2022-09-01T01:28:21.185Z,98566.84
2022-09-01T01:30:52.825Z,98570.72
2022-09-01T01:33:23.373Z,98570.44
2022-09-01T01:35:56.417Z,98577.94
2022-09-01T01:38:25.192Z,98572.81
2022-09-01T01:40:56.030Z,98575.13
2022-09-01T01:43:24.644Z,98567.88
2022-09-01T01:45:56.836Z,98568.28
2022-09-01T01:48:25.085Z,98569.25
2022-09-01T01:50:55.048Z,98579.53
2022-09-01T01:53:23.661Z,98572.81
2022-09-01T01:55:52.105Z,98569.75
2022-09-01T01:58:24.707Z,98572.25
2022-09-01T02:00:54.946Z,98575.09
2022-09-01T02:03:25.568Z,98568.88
2022-09-01T02:05:55.686Z,98569.09
2022-09-01T02:08:26.354Z,98563.69
2022-09-01T02:10:56.004Z,98567.00
2022-09-01T02:13:31.456Z,98563.56
2022-09-01T02:16:02.488Z,98567.47
2022-09-01T02:18:34.344Z,98562.56
2022-09-01T02:21:03.342Z,98559.63
2022-09-01T02:23:32.744Z,98553.47
2022-09-01T02:26:16.152Z,98561.59
2022-09-01T02:28:54.622Z,98558.13
2022-09-01T02:31:24.323Z,98560.13
2022-09-01T02:33:54.589Z,98558.50
2022-09-01T02:36:25.528Z,98558.00
2022-09-01T02:38:55.249Z,98555.25
2022-09-01T02:41:30.236Z,98557.31
2022-09-01T02:44:02.415Z,98555.50
2022-09-01T02:46:31.542Z,98549.50
2022-09-01T02:49:00.751Z,98554.09
2022-09-01T02:51:29.362Z,98547.59
2022-09-01T02:53:58.004Z,98558.97
2022-09-01T02:56:27.773Z,98553.72
2022-09-01T02:58:56.843Z,98551.81
2022-09-01T03:01:30.598Z,98541.84
2022-09-01T03:04:02.009Z,98542.03
2022-09-01T03:06:34.412Z,98550.84
2022-09-01T03:09:04.272Z,98552.28
2022-09-01T03:11:35.163Z,98552.09
2022-09-01T03:14:05.198Z,98548.22
2022-09-01T03:16:34.970Z,98544.63
2022-09-01T03:19:04.349Z,98548.06
2022-09-01T03:21:33.000Z,98546.44
2022-09-01T03:24:03.801Z,98553.44
2022-09-01T03:26:32.488Z,98550.19
2022-09-01T03:29:00.829Z,98549.88
2022-09-01T03:31:31.003Z,98550.84
2022-09-01T03:34:03.472Z,98554.88
2022-09-01T03:36:33.434Z,98551.84
2022-09-01T03:39:02.310Z,98559.66
2022-09-01T03:41:31.400Z,98557.81
2022-09-01T03:44:00.334Z,98556.06
2022-09-01T03:46:35.698Z,98561.13
2022-09-01T03:49:08.208Z,98562.41
2022-09-01T03:51:39.301Z,98556.22
2022-09-01T03:54:08.059Z,98568.31
2022-09-01T03:56:36.109Z,98562.13
2022-09-01T03:59:04.317Z,98561.94
2022-09-01T04:01:41.128Z,98561.28
2022-09-01T04:04:13.848Z,98566.63
2022-09-01T04:06:42.707Z,98557.38
2022-09-01T04:09:11.188Z,98562.94
2022-09-01T04:11:45.751Z,98568.28
2022-09-01T04:14:14.847Z,98569.91
2022-09-01T04:17:00.428Z,98569.44
2022-09-01T04:19:30.721Z,98576.91
2022-09-01T04:22:01.050Z,98574.94
2022-09-01T04:24:31.178Z,98582.28
2022-09-01T04:27:02.457Z,98570.06
2022-09-01T04:29:32.914Z,98575.09
2022-09-01T04:32:04.004Z,98584.22
2022-09-01T04:34:37.621Z,98580.22
2022-09-01T04:37:09.955Z,98582.09
2022-09-01T04:39:39.415Z,98580.16
2022-09-01T04:42:09.453Z,98582.59
2022-09-01T04:44:38.106Z,98587.03
2022-09-01T04:47:17.201Z,98577.72
2022-09-01T04:49:48.496Z,98585.56
2022-09-01T04:52:16.994Z,98590.59
2022-09-01T04:54:45.351Z,98586.06
2022-09-01T04:57:13.651Z,98585.88
2022-09-01T04:59:43.334Z,98584.06
2022-09-01T05:02:11.609Z,98577.38
2022-09-01T05:04:46.444Z,98587.81
2022-09-01T05:07:16.372Z,98594.44
2022-09-01T05:09:46.067Z,98575.78
2022-09-01T05:12:16.039Z,98588.31
2022-09-01T05:14:48.833Z,98580.84
2022-09-01T05:17:17.372Z,98571.94
2022-09-01T05:19:48.640Z,98582.47
2022-09-01T05:22:22.325Z,98581.13
2022-09-01T05:24:54.986Z,98576.34
2022-09-01T05:27:24.036Z,98575.03
2022-09-01T05:29:53.532Z,98572.13
2022-09-01T05:32:22.000Z,98571.09
2022-09-01T05:34:53.088Z,98578.94
2022-09-01T05:37:23.077Z,98575.72
2022-09-01T05:39:52.561Z,98577.69
2022-09-01T05:42:21.838Z,98581.25
2022-09-01T05:44:52.574Z,98580.09
2022-09-01T05:47:22.209Z,98575.00
2022-09-01T05:49:50.988Z,98570.00
2022-09-01T05:52:25.697Z,98575.91
2022-09-01T05:55:00.229Z,98576.25
2022-09-01T05:57:34.607Z,98578.72
2022-09-01T06:00:11.146Z,98579.69
2022-09-01T06:02:40.169Z,98582.31
2022-09-01T06:05:09.785Z,98570.69
2022-09-01T06:07:39.844Z,98574.97
2022-09-01T06:10:09.954Z,98580.13
2022-09-01T06:12:38.804Z,98577.81
2022-09-01T06:15:16.301Z,98584.69
2022-09-01T06:17:46.140Z,98580.59
2022-09-01T06:20:18.477Z,98581.78
2022-09-01T06:22:47.623Z,98573.44
2022-09-01T06:25:18.753Z,98581.69
2022-09-01T06:27:48.400Z,98582.31
2022-09-01T06:30:24.166Z,98585.81
2022-09-01T06:32:52.944Z,98586.97
2022-09-01T06:35:25.234Z,98587.47
2022-09-01T06:37:53.617Z,98600.78
2022-09-01T06:40:25.526Z,98585.84
2022-09-01T06:42:53.875Z,98596.88
2022-09-01T06:45:24.299Z,98602.00
2022-09-01T06:47:57.625Z,98602.38
2022-09-01T06:56:10.252Z,98605.88
2022-09-01T06:58:40.468Z,98613.72
2022-09-01T07:01:12.313Z,98616.50
2022-09-01T07:03:40.684Z,98615.88
2022-09-01T07:06:58.685Z,98609.91
2022-09-01T07:16:30.202Z,98609.25
2022-09-01T07:17:26.903Z,98615.13
2022-09-01T07:19:56.197Z,98608.88
2022-09-01T07:23:03.515Z,98609.28
2022-09-01T07:25:13.413Z,98609.75
2022-09-01T07:27:45.545Z,98612.91
2022-09-01T07:30:14.079Z,98606.91
2022-09-01T07:32:47.463Z,98613.44
2022-09-01T07:35:18.351Z,98609.38
2022-09-01T07:38:48.216Z,98612.31
2022-09-01T07:42:30.902Z,98595.19
2022-09-01T07:43:32.700Z,98616.75
2022-09-01T07:49:29.219Z,98623.53
2022-09-01T07:51:45.715Z,98618.59
2022-09-01T07:54:14.398Z,98616.28
2022-09-01T07:56:42.877Z,98612.06
2022-09-01T07:59:15.692Z,98616.28
2022-09-01T08:01:44.600Z,98608.75
2022-09-01T08:04:13.177Z,98623.44
2022-09-01T08:06:41.748Z,98619.94
2022-09-01T08:09:11.951Z,98614.50
2022-09-01T08:12:02.051Z,98621.53
2022-09-01T08:14:34.272Z,98610.47
2022-09-01T08:17:34.182Z,98616.91
2022-09-01T08:19:53.817Z,98617.25
2022-09-01T08:22:25.518Z,98613.13
2022-09-01T08:24:54.745Z,98606.94
2022-09-01T08:27:24.055Z,98605.53
2022-09-01T08:29:54.014Z,98621.53
2022-09-01T08:32:22.767Z,98621.22
2022-09-01T08:34:51.567Z,98616.09
2022-09-01T08:37:20.439Z,98615.16
2022-09-01T08:39:49.637Z,98619.94
2022-09-01T08:42:25.896Z,98626.59
2022-09-01T08:45:05.901Z,98623.19
2022-09-01T08:47:49.203Z,98626.94
2022-09-01T08:50:23.839Z,98618.00
2022-09-01T08:53:09.035Z,98632.31
2022-09-01T08:55:41.181Z,98621.13
2022-09-01T08:58:11.056Z,98607.56
2022-09-01T09:00:49.305Z,98621.53
2022-09-01T09:03:40.188Z,98616.91
2022-09-01T09:06:16.767Z,98613.91
2022-09-01T09:08:54.387Z,98609.31
2022-09-01T09:11:52.140Z,98613.84
2022-09-01T09:14:30.723Z,98602.84
2022-09-01T09:17:00.580Z,98617.44
2022-09-01T09:19:32.601Z,98617.41
2022-09-01T09:22:03.489Z,98611.72
2022-09-01T09:24:47.672Z,98607.75
2022-09-01T09:27:19.909Z,98616.59
2022-09-01T09:29:51.249Z,98611.88
2022-09-01T09:32:35.100Z,98609.84
2022-09-01T09:35:23.297Z,98609.56
2022-09-01T09:37:51.713Z,98601.94
2022-09-01T09:40:22.616Z,98608.69
2022-09-01T09:43:05.015Z,98605.22
2022-09-01T09:45:36.367Z,98593.44
2022-09-01T09:48:14.060Z,98602.41
2022-09-01T09:50:44.182Z,98608.25
2022-09-01T09:53:17.204Z,98596.03
2022-09-01T09:55:56.712Z,98592.75
2022-09-01T09:58:27.848Z,98602.66
2022-09-01T10:01:06.604Z,98588.13
2022-09-01T10:03:40.811Z,98593.56
2022-09-01T10:06:12.548Z,98601.88
2022-09-01T10:08:45.394Z,98594.25
2022-09-01T10:11:33.499Z,98591.25
2022-09-01T10:14:05.929Z,98591.41
2022-09-01T10:16:39.052Z,98596.56
2022-09-01T10:19:13.524Z,98589.00
2022-09-01T10:21:46.182Z,98596.41
2022-09-01T10:24:22.334Z,98584.09
2022-09-01T10:26:57.005Z,98582.88
2022-09-01T10:29:27.168Z,98583.19
2022-09-01T10:32:14.721Z,98589.38
2022-09-01T10:34:45.668Z,98589.78
2022-09-01T10:37:16.168Z,98578.84
2022-09-01T10:40:13.961Z,98585.03
2022-09-01T10:42:45.374Z,98572.31
2022-09-01T10:45:23.654Z,98571.94
2022-09-01T10:47:52.345Z,98576.53
2022-09-01T10:50:35.430Z,98587.66
2022-09-01T10:53:08.480Z,98570.19
2022-09-01T10:55:43.195Z,98574.00
2022-09-01T11:05:19.827Z,98570.53
2022-09-01T11:08:00.492Z,98573.56
2022-09-01T11:10:51.625Z,98560.84
2022-09-01T11:13:36.585Z,98564.53
2022-09-01T11:19:25.918Z,98563.41
2022-09-01T11:22:07.127Z,98565.66
2022-09-01T11:25:02.490Z,98571.91
2022-09-01T11:28:05.277Z,98568.72
2022-09-01T11:30:52.305Z,98571.56
2022-09-01T11:33:32.789Z,98574.63
2022-09-01T11:36:03.214Z,98569.97
2022-09-01T11:38:33.968Z,98573.66
2022-09-01T11:41:03.726Z,98564.19
2022-09-01T11:43:32.393Z,98557.03
2022-09-01T11:46:09.069Z,98562.97
2022-09-01T11:48:40.431Z,98555.28
2022-09-01T11:51:08.593Z,98549.66
2022-09-01T11:53:44.058Z,98554.38
2022-09-01T11:56:17.578Z,98559.56
2022-09-01T11:58:46.089Z,98562.50
2022-09-01T12:01:17.420Z,98560.28
2022-09-01T12:03:47.352Z,98560.31
2022-09-01T12:06:21.369Z,98553.63
2022-09-01T12:08:55.557Z,98555.91
2022-09-01T12:11:30.498Z,98547.22
2022-09-01T12:14:01.192Z,98544.50
2022-09-01T12:16:31.259Z,98540.09
2022-09-01T12:19:00.568Z,98535.59
2022-09-01T12:21:31.564Z,98537.19
2022-09-01T12:24:13.680Z,98534.19
2022-09-01T12:26:43.846Z,98541.16
2022-09-01T12:29:13.873Z,98537.91
2022-09-01T12:31:43.371Z,98540.31
2022-09-01T12:34:26.195Z,98535.34
2022-09-01T12:37:05.630Z,98534.59
2022-09-01T12:39:38.353Z,98533.41
2022-09-01T12:42:25.235Z,98539.84
2022-09-01T12:44:56.280Z,98529.06
2022-09-01T12:47:50.566Z,98548.34
2022-09-01T12:50:38.614Z,98542.41
2022-09-01T12:53:16.854Z,98531.97
2022-09-01T12:55:57.384Z,98537.63
2022-09-01T12:58:29.648Z,98530.78
2022-09-01T13:01:03.608Z,98536.41
2022-09-01T13:03:34.648Z,98541.88
2022-09-01T13:06:04.885Z,98540.19
2022-09-01T13:08:36.098Z,98535.75
2022-09-01T13:11:09.144Z,98539.38
2022-09-01T13:13:41.021Z,98539.94
2022-09-01T13:16:13.114Z,98533.94
2022-09-01T13:21:35.281Z,98525.53
2022-09-01T13:24:05.267Z,98531.97
2022-09-01T13:26:33.658Z,98535.00
2022-09-01T13:29:03.180Z,98538.78
2022-09-01T13:31:36.866Z,98535.44
2022-09-01T13:34:22.408Z,98547.28
2022-09-01T13:36:52.890Z,98545.13
2022-09-01T13:39:22.745Z,98537.06
2022-09-01T13:41:51.028Z,98541.44
2022-09-01T13:44:20.792Z,98537.16
2022-09-01T13:50:06.681Z,98532.91
2022-09-01T13:52:25.995Z,98538.44
2022-09-01T13:54:54.297Z,98539.13
2022-09-01T13:57:22.447Z,98536.78
2022-09-01T13:59:52.043Z,98533.84
2022-09-01T14:02:20.657Z,98539.66
2022-09-01T14:04:48.874Z,98540.78
2022-09-01T14:07:18.959Z,98545.97
2022-09-01T14:09:47.613Z,98548.69
2022-09-01T14:12:15.994Z,98542.25
2022-09-01T14:17:33.788Z,98542.28
2022-09-01T14:20:02.067Z,98535.84
2022-09-01T14:22:32.328Z,98537.56
2022-09-01T14:25:02.919Z,98537.78
2022-09-01T14:27:31.049Z,98534.00
2022-09-01T14:29:59.145Z,98531.66
2022-09-01T14:32:28.277Z,98525.88
2022-09-01T14:34:59.360Z,98531.78
2022-09-01T14:37:27.611Z,98538.75
2022-09-01T14:39:58.468Z,98538.38
2022-09-01T14:42:29.129Z,98531.53
2022-09-01T14:44:57.589Z,98519.91
2022-09-01T14:47:26.069Z,98532.25
2022-09-01T14:49:54.909Z,98529.25
2022-09-01T14:52:24.985Z,98538.75
2022-09-01T14:54:53.701Z,98528.84
2022-09-01T14:57:36.937Z,98539.97
2022-09-01T15:00:10.246Z,98534.66
2022-09-01T15:02:39.012Z,98540.25
2022-09-01T15:05:08.652Z,98545.44
2022-09-01T15:07:39.058Z,98532.28
2022-09-01T15:10:09.071Z,98540.22
2022-09-01T15:12:40.061Z,98535.16
2022-09-01T15:15:09.786Z,98537.06
2022-09-01T15:17:37.930Z,98548.56
2022-09-01T15:20:33.234Z,98548.41
2022-09-01T15:23:02.934Z,98538.69
2022-09-01T15:25:31.414Z,98547.38
2022-09-01T15:28:00.048Z,98547.97
2022-09-01T15:30:28.682Z,98545.81
2022-09-01T15:32:57.177Z,98537.88
2022-09-01T15:35:25.744Z,98540.03
2022-09-01T15:37:53.985Z,98538.75
2022-09-01T15:40:24.765Z,98554.66
2022-09-01T15:42:52.979Z,98545.31
2022-09-01T15:45:23.063Z,98536.75
2022-09-01T15:47:51.584Z,98543.91
2022-09-01T15:50:22.278Z,98539.97
2022-09-01T15:52:53.718Z,98543.28
2022-09-01T15:55:25.880Z,98543.56
2022-09-01T15:57:55.066Z,98546.47
2022-09-01T16:00:25.466Z,98545.13
2022-09-01T16:02:56.646Z,98540.75
2022-09-01T16:05:26.195Z,98542.44
2022-09-01T16:10:32.454Z,98547.59
2022-09-01T16:13:03.383Z,98552.47
2022-09-01T16:15:32.604Z,98545.75
2022-09-01T16:18:20.063Z,98547.84
2022-09-01T16:20:55.144Z,98551.34
2022-09-01T16:23:24.441Z,98547.81
2022-09-01T16:25:54.801Z,98555.03
2022-09-01T16:28:26.927Z,98555.47
2022-09-01T16:30:59.505Z,98555.31
2022-09-01T16:33:27.621Z,98561.19
2022-09-01T16:36:17.334Z,98562.97
2022-09-01T16:38:49.255Z,98563.28
2022-09-01T16:41:28.316Z,98571.59
2022-09-01T16:44:03.658Z,98568.50
2022-09-01T16:46:35.694Z,98570.41
2022-09-01T16:49:14.659Z,98560.56
2022-09-01T16:51:50.305Z,98571.75
2022-09-01T16:54:25.002Z,98570.09
2022-09-01T16:57:00.525Z,98572.13
2022-09-01T16:59:35.337Z,98568.88
2022-09-01T17:02:10.740Z,98572.41
2022-09-01T17:04:43.520Z,98571.06
2022-09-01T17:07:16.882Z,98571.56
2022-09-01T17:09:47.101Z,98586.22
2022-09-01T17:12:30.580Z,98592.84
2022-09-01T17:15:00.474Z,98588.00
2022-09-01T17:17:35.694Z,98589.22
2022-09-01T17:20:07.022Z,98593.59
2022-09-01T17:22:35.520Z,98587.19
2022-09-01T17:25:07.906Z,98594.56
2022-09-01T17:27:41.231Z,98593.59
2022-09-01T17:30:10.350Z,98596.38
2022-09-01T17:33:08.838Z,98599.69
2022-09-01T17:35:58.744Z,98596.84
2022-09-01T17:38:32.467Z,98599.19
2022-09-01T17:41:08.057Z,98589.72
2022-09-01T17:43:48.637Z,98604.97
2022-09-01T17:46:22.861Z,98598.53
2022-09-01T17:48:54.424Z,98605.06
2022-09-01T17:51:26.963Z,98601.56
2022-09-01T17:54:01.905Z,98607.75
2022-09-01T17:56:42.465Z,98614.78
2022-09-01T17:59:17.168Z,98606.22
2022-09-01T18:01:53.194Z,98616.22
2022-09-01T18:04:49.013Z,98611.75
2022-09-01T18:07:28.473Z,98617.13
2022-09-01T18:09:58.050Z,98617.16
2022-09-01T18:12:28.745Z,98633.66
2022-09-01T18:15:05.089Z,98626.19
2022-09-01T18:17:35.663Z,98635.06
2022-09-01T18:20:10.240Z,98630.84
2022-09-01T18:22:43.136Z,98627.41
2022-09-01T18:25:17.510Z,98638.75
2022-09-01T18:27:47.659Z,98639.19
2022-09-01T18:30:36.326Z,98637.88
2022-09-01T18:33:14.515Z,98644.16
2022-09-01T18:35:48.378Z,98638.84
2022-09-01T18:38:22.887Z,98644.09
2022-09-01T18:41:09.554Z,98639.25
2022-09-01T18:43:39.572Z,98637.56
2022-09-01T18:46:16.290Z,98646.22
2022-09-01T18:48:56.429Z,98643.31
2022-09-01T18:51:29.396Z,98647.94
2022-09-01T18:54:00.739Z,98645.31
2022-09-01T18:56:37.822Z,98648.19
2022-09-01T18:59:17.564Z,98645.25
2022-09-01T19:01:58.107Z,98647.28
2022-09-01T19:04:31.815Z,98646.56
2022-09-01T19:07:05.899Z,98652.81
2022-09-01T19:09:36.346Z,98651.44
2022-09-01T19:12:14.210Z,98651.41
2022-09-01T19:14:47.549Z,98647.09
2022-09-01T19:17:31.593Z,98659.72
2022-09-01T19:20:01.818Z,98653.38
2022-09-01T19:22:36.906Z,98661.59
2022-09-01T19:25:25.987Z,98660.09
2022-09-01T19:27:58.487Z,98667.88
2022-09-01T19:30:27.034Z,98669.78
2022-09-01T19:32:56.897Z,98671.25
2022-09-01T19:35:25.288Z,98666.84
2022-09-01T19:37:53.716Z,98663.94
2022-09-01T19:40:25.421Z,98668.63
2022-09-01T19:42:57.251Z,98670.31
2022-09-01T19:45:29.356Z,98666.94
2022-09-01T19:48:08.052Z,98667.41
2022-09-01T19:50:38.804Z,98669.34
2022-09-01T19:53:11.192Z,98665.22
2022-09-01T19:55:43.532Z,98659.38
2022-09-01T19:58:14.506Z,98671.22
2022-09-01T20:00:51.152Z,98674.22
2022-09-01T20:03:25.358Z,98671.91
2022-09-01T20:05:57.251Z,98677.94
2022-09-01T20:08:31.197Z,98666.69
2022-09-01T20:11:03.227Z,98674.00
2022-09-01T20:13:44.727Z,98679.66
2022-09-01T20:16:20.933Z,98686.94
2022-09-01T20:18:53.549Z,98681.53
2022-09-01T20:21:22.337Z,98679.13
2022-09-01T20:23:54.552Z,98681.19
2022-09-01T20:26:26.962Z,98676.38
2022-09-01T20:29:01.304Z,98673.19
2022-09-01T20:31:32.446Z,98667.75
2022-09-01T20:34:07.962Z,98671.47
2022-09-01T20:36:41.008Z,98683.22
2022-09-01T20:39:30.029Z,98680.31
2022-09-01T20:42:02.640Z,98679.91
2022-09-01T20:44:37.087Z,98681.72
2022-09-01T20:47:06.351Z,98678.91
2022-09-01T20:49:38.458Z,98684.09
2022-09-01T20:52:11.342Z,98685.16
2022-09-01T20:54:43.337Z,98681.81
2022-09-01T20:57:22.017Z,98683.34
2022-09-01T20:59:52.292Z,98686.06
2022-09-01T21:02:39.516Z,98683.81
2022-09-01T21:05:19.478Z,98684.00
2022-09-01T21:07:56.727Z,98686.22
2022-09-01T21:10:32.030Z,98690.72
2022-09-01T21:13:14.840Z,98691.28
2022-09-01T21:15:46.377Z,98688.66
2022-09-01T21:18:28.402Z,98694.50
2022-09-01T21:21:01.763Z,98692.88
2022-09-01T21:23:31.161Z,98688.63
2022-09-01T21:25:59.741Z,98694.19
2022-09-01T21:28:29.383Z,98694.31
2022-09-01T21:31:00.043Z,98690.28
2022-09-01T21:33:30.237Z,98684.47
2022-09-01T21:36:00.605Z,98695.69
2022-09-01T21:38:30.113Z,98692.28
2022-09-01T21:41:00.379Z,98693.72
2022-09-01T21:43:31.766Z,98694.00
2022-09-01T21:46:00.488Z,98690.91
2022-09-01T21:48:29.181Z,98695.81
2022-09-01T21:50:59.129Z,98698.28
2022-09-01T21:53:27.594Z,98695.47
2022-09-01T21:55:55.865Z,98703.66
2022-09-01T21:58:24.220Z,98698.63
2022-09-01T22:04:58.096Z,98697.00
2022-09-01T22:07:28.855Z,98699.75
2022-09-01T22:09:57.881Z,98702.59
2022-09-01T22:12:26.090Z,98693.44
2022-09-01T22:14:54.547Z,98701.13
2022-09-01T22:17:22.908Z,98709.91
2022-09-01T22:19:53.028Z,98703.38
2022-09-01T22:22:21.434Z,98703.91
2022-09-01T22:24:51.200Z,98697.34
2022-09-01T22:27:19.477Z,98691.69
2022-09-01T22:29:47.876Z,98693.94
2022-09-01T22:32:15.997Z,98692.78
2022-09-01T22:34:44.277Z,98691.63
2022-09-01T22:37:12.789Z,98696.00
2022-09-01T22:39:41.100Z,98694.69
2022-09-01T22:42:10.599Z,98711.63
2022-09-01T22:44:38.986Z,98707.50
2022-09-01T22:47:07.834Z,98709.19
2022-09-01T22:49:35.981Z,98707.69
2022-09-01T22:52:04.734Z,98706.28
2022-09-01T22:54:32.837Z,98709.41
2022-09-01T22:57:02.310Z,98704.03
2022-09-01T22:59:32.012Z,98702.63
2022-09-01T23:02:01.262Z,98698.69
2022-09-01T23:04:32.184Z,98708.53
2022-09-01T23:07:00.719Z,98695.75
2022-09-01T23:09:28.995Z,98693.31
2022-09-01T23:11:57.405Z,98704.13
2022-09-01T23:14:25.937Z,98696.81
2022-09-01T23:16:55.427Z,98693.03
2022-09-01T23:19:24.787Z,98695.28
2022-09-01T23:21:53.375Z,98694.56
2022-09-01T23:24:21.931Z,98699.28
2022-09-01T23:26:50.252Z,98697.16
2022-09-01T23:29:18.866Z,98702.25
2022-09-01T23:31:47.061Z,98699.81
2022-09-01T23:34:18.309Z,98692.84
2022-09-01T23:36:47.004Z,98705.41
2022-09-01T23:39:15.557Z,98706.88
2022-09-01T23:41:43.772Z,98693.84
2022-09-01T23:44:14.368Z,98693.81
2022-09-01T23:46:44.699Z,98691.28
2022-09-01T23:49:14.527Z,98686.84
2022-09-01T23:51:44.229Z,98679.31
2022-09-01T23:54:13.488Z,98686.53
2022-09-01T23:56:41.934Z,98692.69
2022-09-01T23:59:10.080Z,98687.81
